Duplessis, Louisiana
Current Conditions -  °F | °C
As of 3:15 PM on Thursday 20 Nov 2014 (Local Time) from KL38 Reporting Station
Broken Clouds Broken Clouds  
Wind Chill: 69°   Ceiling: 7500
Heat Index: 69°   Visibility: 10mi
Dew Point: 46°   Wind: 7mph
Humidity: 45%   Direction: 160°SSE
Pressure: 30.18"   Gusts: NA
Location:  30.27°N, 90.94°W
Report Text: KL38 202115Z AUTO 16006KT 10SM BKN075 20/08 A3018 RMK AO2 T02040080
Loading
Personal Weather Stations






























Interactive Weather Map New forecast layout! Learn more

10-Day Weather Forecast

Advertisements
Track Severe Weather on mobile